Time;durP1;ratioP1;P1;durP2;ratioP2;P2;SDS_P1;SDS_P2;PMS_P1;PMS_P2;Temp;Humidity;BMP_temperature;BMP_pressure;BME280_temperature;BME280_humidity;BME280_pressure;Samples;Min_cycle;Max_cycle;Signal;HPM_P1;HPM_P2
2021/10/02 00:31:31;;;;;;;7.03;2.97;;;;;;;-145.42;100.00;56955.94;2507526;31;2004981;-44
2021/10/02 00:35:11;;;;;;;6.75;3.75;;;;;;;-145.42;100.00;56955.94;2508061;31;2005060;-45
2021/10/02 00:46:00;;;;;;;5.38;3.50;;;;;;;-145.42;100.00;56955.94;2507557;31;2005070;-47
2021/10/02 00:49:27;;;;;;;6.53;3.20;;;;;;;-145.42;100.00;56955.94;2544254;31;2004995;-46
2021/10/02 00:52:52;;;;;;;6.32;3.60;;;;;;;-145.42;100.00;56955.94;2546396;31;2005024;-45
2021/10/02 00:56:18;;;;;;;4.75;3.55;;;;;;;-145.42;100.00;56955.94;2543129;36;2004867;-46
2021/10/02 00:59:47;;;;;;;5.72;3.58;;;;;;;-145.42;100.00;56955.94;2543913;31;2004823;-46
2021/10/02 01:03:24;;;;;;;6.10;3.17;;;;;;;-145.42;100.00;56955.94;2543789;36;2005150;-44
2021/10/02 01:07:03;;;;;;;5.30;3.53;;;;;;;-145.42;100.00;56955.94;2507153;36;2005473;-45
2021/10/02 01:10:56;;;;;;;3.83;3.10;;;;;;;-145.42;100.00;56955.94;2510575;31;2005035;-45
2021/10/02 01:14:37;;;;;;;5.78;3.75;;;;;;;-145.42;100.00;56955.94;2513714;31;2005170;-46
2021/10/02 01:18:34;;;;;;;5.38;3.70;;;;;;;-145.42;100.00;56955.94;2509585;31;2005198;-46
2021/10/02 01:22:08;;;;;;;5.35;3.95;;;;;;;-145.42;100.00;56955.94;2510890;31;2004991;-48
2021/10/02 01:25:45;;;;;;;4.88;3.22;;;;;;;-145.42;100.00;56955.94;2542985;36;2005025;-44
2021/10/02 01:29:14;;;;;;;3.67;3.38;;;;;;;-145.42;100.00;56955.94;2543739;31;2005819;-46
2021/10/02 01:32:56;;;;;;;6.88;3.95;;;;;;;-145.42;100.00;56955.94;2543084;36;2004986;-45
2021/10/02 01:36:45;;;;;;;4.25;3.80;;;;;;;-145.42;100.00;56955.94;2507032;36;2005211;-45
2021/10/02 01:47:50;;;;;;;6.13;4.38;;;;;;;-145.42;100.00;56955.94;2579189;36;2003106;-46
2021/10/02 01:51:20;;;;;;;6.85;4.18;;;;;;;-145.42;100.00;56955.94;2543163;36;2005941;-45
2021/10/02 01:54:47;;;;;;;7.65;4.22;;;;;;;-145.42;100.00;56955.94;2543442;31;2005059;-46
2021/10/02 01:58:15;;;;;;;6.78;4.75;;;;;;;-145.42;100.00;56955.94;2544403;31;2004932;-46
2021/10/02 02:01:44;;;;;;;7.40;4.22;;;;;;;-145.42;100.00;56955.94;2544477;31;2004903;-48
2021/10/02 02:05:13;;;;;;;6.53;4.60;;;;;;;-145.42;100.00;56955.94;2546513;31;2004972;-46
2021/10/02 02:08:43;;;;;;;7.97;5.25;;;;;;;-145.42;100.00;56955.94;2544745;31;2004990;-46
2021/10/02 02:12:23;;;;;;;8.55;4.75;;;;;;;-145.42;100.00;56955.94;2509373;31;2004977;-47
2021/10/02 02:15:54;;;;;;;6.80;5.18;;;;;;;-145.42;100.00;56955.94;2544485;31;2004865;-47
2021/10/02 02:19:22;;;;;;;7.03;4.55;;;;;;;-145.42;100.00;56955.94;2544633;31;2004953;-45
2021/10/02 02:22:48;;;;;;;10.23;4.82;;;;;;;-145.42;100.00;56955.94;2545225;31;2005158;-48
2021/10/02 02:26:14;;;;;;;6.32;4.15;;;;;;;-145.42;100.00;56955.94;2544734;31;2005115;-46
2021/10/02 02:29:41;;;;;;;5.60;4.32;;;;;;;-145.42;100.00;56955.94;2544182;31;2004979;-48
2021/10/02 02:33:07;;;;;;;5.63;4.53;;;;;;;-145.42;100.00;56955.94;2543697;31;2005120;-45
2021/10/02 02:36:33;;;;;;;5.60;4.97;;;;;;;-145.42;100.00;56955.94;2543043;36;2004640;-47
2021/10/02 02:39:59;;;;;;;6.28;4.90;;;;;;;-145.42;100.00;56955.94;2543323;36;2004828;-46
2021/10/02 02:43:31;;;;;;;7.45;4.72;;;;;;;-145.42;100.00;56955.94;2543512;36;2005125;-47
2021/10/02 02:47:22;;;;;;;5.97;4.78;;;;;;;-145.42;100.00;56955.94;2543173;31;2005158;-49
2021/10/02 02:51:09;;;;;;;6.25;4.07;;;;;;;-145.42;100.00;56955.94;2543504;31;2005120;-44
2021/10/02 02:54:47;;;;;;;6.10;4.22;;;;;;;-145.42;100.00;56955.94;2506659;36;2005091;-45
2021/10/02 02:58:19;;;;;;;8.18;5.00;;;;;;;-145.42;100.00;56955.94;2543239;36;2005231;-46
2021/10/02 03:01:46;;;;;;;5.57;4.40;;;;;;;-145.42;100.00;56955.94;2543679;31;2004486;-45
2021/10/02 03:05:16;;;;;;;7.00;4.68;;;;;;;-145.42;100.00;56955.94;2543148;36;2005705;-46
2021/10/02 03:08:52;;;;;;;5.85;4.18;;;;;;;-145.42;100.00;56955.94;2543613;31;2005129;-47
2021/10/02 03:12:21;;;;;;;6.30;4.20;;;;;;;-145.42;100.00;56955.94;2543498;31;2005132;-46
2021/10/02 03:15:49;;;;;;;7.35;4.20;;;;;;;-145.42;100.00;56955.94;2542529;36;2005103;-48
2021/10/02 03:19:17;;;;;;;4.57;4.10;;;;;;;-145.42;100.00;56955.94;2543747;31;2004907;-47
2021/10/02 03:22:43;;;;;;;7.40;4.50;;;;;;;-145.42;100.00;56955.94;2543204;31;2005272;-46
2021/10/02 03:26:10;;;;;;;7.07;4.65;;;;;;;-145.42;100.00;56955.94;2543101;31;2004758;-45
2021/10/02 03:29:38;;;;;;;5.90;4.40;;;;;;;-145.42;100.00;56955.94;2542617;36;2005129;-46
2021/10/02 03:33:04;;;;;;;7.50;4.88;;;;;;;-145.42;100.00;56955.94;2543612;36;2004795;-46
2021/10/02 03:36:30;;;;;;;5.63;4.20;;;;;;;-145.42;100.00;56955.94;2542567;31;2004399;-46
2021/10/02 03:39:56;;;;;;;8.15;4.15;;;;;;;-145.42;100.00;56955.94;2543355;31;2004743;-46
2021/10/02 03:43:22;;;;;;;7.13;4.30;;;;;;;-145.42;100.00;56955.94;2579798;31;2004607;-46
2021/10/02 03:46:48;;;;;;;7.90;4.63;;;;;;;-145.42;100.00;56955.94;2542524;36;2004957;-45
2021/10/02 03:50:14;;;;;;;5.70;4.60;;;;;;;-145.42;100.00;56955.94;2544045;31;2005177;-46
2021/10/02 03:53:41;;;;;;;6.35;5.05;;;;;;;-145.42;100.00;56955.94;2543334;31;2004921;-45
2021/10/02 03:57:07;;;;;;;6.93;5.28;;;;;;;-145.42;100.00;56955.94;2547548;31;2004944;-47
2021/10/02 04:00:32;;;;;;;10.18;5.45;;;;;;;-145.42;100.00;56955.94;2547397;36;2004841;-46
2021/10/02 04:03:58;;;;;;;6.63;5.32;;;;;;;-145.42;100.00;56955.94;2543509;36;2004944;-50
2021/10/02 04:07:24;;;;;;;8.48;5.32;;;;;;;-145.42;100.00;56955.94;2542881;36;2004704;-45
2021/10/02 04:10:49;;;;;;;9.25;5.00;;;;;;;-145.42;100.00;56955.94;2542681;36;2005128;-45
2021/10/02 04:14:15;;;;;;;7.18;5.65;;;;;;;-145.42;100.00;56955.94;2543759;31;2005182;-49
2021/10/02 04:17:41;;;;;;;8.13;5.65;;;;;;;-145.42;100.00;56955.94;2543738;36;2005087;-48
2021/10/02 04:21:07;;;;;;;9.05;6.03;;;;;;;-145.42;100.00;56955.94;2543234;31;2005101;-45
2021/10/02 04:24:32;;;;;;;7.38;5.28;;;;;;;-145.42;100.00;56955.94;2542350;36;2005066;-47
2021/10/02 04:27:58;;;;;;;7.28;5.38;;;;;;;-145.42;100.00;56955.94;2543174;31;2004973;-46
2021/10/02 04:31:23;;;;;;;8.30;5.30;;;;;;;-145.42;100.00;56955.94;2543272;31;2004263;-46
2021/10/02 04:34:49;;;;;;;12.63;5.78;;;;;;;-145.42;100.00;56955.94;2543581;31;2005073;-47
2021/10/02 04:38:15;;;;;;;5.95;5.30;;;;;;;-145.42;100.00;56955.94;2542686;31;2005243;-45
2021/10/02 04:41:40;;;;;;;12.43;4.93;;;;;;;-145.42;100.00;56955.94;2543482;36;2005142;-45
2021/10/02 04:45:09;;;;;;;5.63;4.80;;;;;;;-145.42;100.00;56955.94;2544304;36;2004969;-45
2021/10/02 04:48:38;;;;;;;6.22;5.03;;;;;;;-145.42;100.00;56955.94;2543472;31;2005202;-46
2021/10/02 04:52:06;;;;;;;9.50;5.88;;;;;;;-145.42;100.00;56955.94;2579923;36;2004419;-44
2021/10/02 04:55:32;;;;;;;7.57;5.50;;;;;;;-145.42;100.00;56955.94;2543865;31;2004799;-46
2021/10/02 04:58:57;;;;;;;7.00;5.32;;;;;;;-145.42;100.00;56955.94;2599543;31;2004366;-45
2021/10/02 05:02:23;;;;;;;6.07;4.95;;;;;;;-145.42;100.00;56955.94;2543514;36;2005218;-45
2021/10/02 05:05:49;;;;;;;8.57;4.80;;;;;;;-145.42;100.00;56955.94;2545671;31;2005085;-45
2021/10/02 05:09:14;;;;;;;6.13;5.22;;;;;;;-145.42;100.00;56955.94;2545091;31;2004376;-46
2021/10/02 05:12:40;;;;;;;7.82;4.82;;;;;;;-145.42;100.00;56955.94;2544130;31;2004970;-46
2021/10/02 05:16:06;;;;;;;8.35;5.10;;;;;;;-145.42;100.00;56955.94;2543140;36;2004357;-45
2021/10/02 05:19:32;;;;;;;9.25;5.90;;;;;;;-145.42;100.00;56955.94;2542803;31;2004856;-45
2021/10/02 05:22:57;;;;;;;7.55;5.53;;;;;;;-145.42;100.00;56955.94;2543286;36;2004755;-46
2021/10/02 05:26:23;;;;;;;6.40;5.13;;;;;;;-145.42;100.00;56955.94;2542840;31;2004972;-45
2021/10/02 05:29:49;;;;;;;5.45;4.95;;;;;;;-145.42;100.00;56955.94;2543654;31;2004930;-45
2021/10/02 05:33:15;;;;;;;5.85;5.18;;;;;;;-145.42;100.00;56955.94;2543098;36;2004846;-45
2021/10/02 05:36:41;;;;;;;6.60;5.60;;;;;;;-145.42;100.00;56955.94;2543046;36;2005087;-47
2021/10/02 05:40:07;;;;;;;7.70;5.00;;;;;;;-145.42;100.00;56955.94;2543012;36;2004995;-47
2021/10/02 05:43:33;;;;;;;8.50;5.60;;;;;;;-145.42;100.00;56955.94;2543790;31;2004892;-47
2021/10/02 05:46:58;;;;;;;6.47;5.00;;;;;;;-145.42;100.00;56955.94;2579195;36;2004558;-45
2021/10/02 05:50:24;;;;;;;6.40;5.25;;;;;;;-145.42;100.00;56955.94;2543563;31;2005081;-47
2021/10/02 05:53:50;;;;;;;5.55;5.05;;;;;;;-145.42;100.00;56955.94;2546069;31;2005515;-46
2021/10/02 05:57:16;;;;;;;7.65;5.82;;;;;;;-145.42;100.00;56955.94;2543941;31;2005345;-50
2021/10/02 06:00:42;;;;;;;5.68;5.10;;;;;;;-145.42;100.00;56955.94;2545501;31;2004793;-46
2021/10/02 06:04:08;;;;;;;7.85;5.70;;;;;;;-145.42;100.00;56955.94;2542853;31;2004937;-47
2021/10/02 06:07:33;;;;;;;6.18;5.57;;;;;;;-145.42;100.00;56955.94;2542995;36;2004990;-47
2021/10/02 06:10:59;;;;;;;8.65;5.30;;;;;;;-145.42;100.00;56955.94;2579059;36;2004584;-47
2021/10/02 06:14:25;;;;;;;5.13;4.60;;;;;;;-145.42;100.00;56955.94;2543492;31;2004412;-46
2021/10/02 06:17:51;;;;;;;6.63;5.13;;;;;;;-145.42;100.00;56955.94;2543924;31;2005615;-46
